Time;durP1;ratioP1;P1;durP2;ratioP2;P2;SDS_P1;SDS_P2;PMS_P1;PMS_P2;Temp;Humidity;BMP_temperature;BMP_pressure;BME280_temperature;BME280_humidity;BME280_pressure;Samples;Min_cycle;Max_cycle;Signal;HPM_P1;HPM_P2
2023/03/07 00:00:44;;;;;;;0.95;0.95;;;2.80;83.20;;;;;;5053930;28;20246;-68
2023/03/07 00:03:15;;;;;;;2.90;0.95;;;2.80;83.20;;;;;;5054007;28;20185;-68
2023/03/07 00:05:41;;;;;;;0.40;0.40;;;2.80;83.20;;;;;;5054073;28;20213;-68
2023/03/07 00:08:07;;;;;;;0.73;0.63;;;2.80;83.70;;;;;;5036294;28;20177;-68
2023/03/07 00:10:33;;;;;;;0.95;0.95;;;2.80;84.00;;;;;;5053862;28;20781;-68
2023/03/07 00:12:59;;;;;;;0.77;0.77;;;2.90;83.80;;;;;;5054106;28;20272;-68
2023/03/07 00:15:25;;;;;;;0.60;0.60;;;2.90;83.70;;;;;;5035831;28;20181;-68
2023/03/07 00:17:50;;;;;;;1.93;1.23;;;2.90;83.20;;;;;;5053966;28;20177;-68
2023/03/07 00:20:16;;;;;;;0.40;0.40;;;2.90;82.90;;;;;;5053690;28;20196;-68
2023/03/07 00:22:43;;;;;;;0.40;0.40;;;2.80;82.70;;;;;;5053653;28;20272;-68
2023/03/07 00:25:09;;;;;;;2.85;2.75;;;2.70;83.00;;;;;;5035526;28;20206;-68
2023/03/07 00:27:35;;;;;;;1.15;1.08;;;2.70;83.30;;;;;;5053544;28;20196;-68
2023/03/07 00:30:03;;;;;;;1.20;1.10;;;2.50;83.10;;;;;;5053458;28;20199;-68
2023/03/07 00:32:29;;;;;;;1.17;1.15;;;2.50;83.30;;;;;;5053539;28;20198;-68
2023/03/07 00:34:56;;;;;;;1.67;1.10;;;2.40;83.30;;;;;;5053315;28;20208;-68
2023/03/07 00:37:22;;;;;;;0.52;0.52;;;2.30;83.30;;;;;;5053587;28;20589;-68
2023/03/07 00:39:48;;;;;;;0.40;0.40;;;2.10;83.90;;;;;;5053787;28;20192;-68
2023/03/07 00:42:14;;;;;;;0.50;0.50;;;2.10;84.50;;;;;;5053437;28;20222;-68
2023/03/07 00:44:40;;;;;;;1.48;1.38;;;2.10;84.90;;;;;;5053297;28;20203;-68
2023/03/07 00:47:06;;;;;;;1.27;1.27;;;2.30;85.00;;;;;;5053421;28;20176;-68
2023/03/07 00:49:31;;;;;;;2.53;1.17;;;2.40;84.10;;;;;;5053344;28;20189;-68
2023/03/07 00:51:57;;;;;;;0.40;0.40;;;2.40;83.60;;;;;;5053243;28;20490;-68
2023/03/07 00:54:23;;;;;;;1.03;1.03;;;2.40;83.70;;;;;;5053080;28;20174;-68
2023/03/07 00:56:48;;;;;;;0.50;0.50;;;2.30;83.90;;;;;;5053291;28;20177;-68
2023/03/07 00:59:14;;;;;;;0.40;0.40;;;2.20;84.20;;;;;;5053236;28;20288;-68
2023/03/07 01:01:40;;;;;;;0.40;0.40;;;2.20;84.40;;;;;;5053154;28;20224;-68
2023/03/07 01:04:05;;;;;;;0.50;0.50;;;2.20;85.10;;;;;;5052896;28;20200;-68
2023/03/07 01:06:33;;;;;;;0.50;0.50;;;2.20;85.20;;;;;;5053376;28;20605;-68
2023/03/07 01:09:06;;;;;;;0.50;0.50;;;2.20;85.90;;;;;;5052879;28;20757;-68
2023/03/07 01:11:33;;;;;;;12.82;4.10;;;2.30;85.90;;;;;;5035251;28;20696;-68
2023/03/07 01:14:01;;;;;;;0.40;0.40;;;2.30;85.40;;;;;;5052948;28;20223;-68
2023/03/07 01:16:36;;;;;;;1.08;1.08;;;2.40;85.80;;;;;;5053154;28;20635;-68
2023/03/07 01:19:05;;;;;;;0.70;0.70;;;2.50;85.50;;;;;;5035253;28;20537;-68
2023/03/07 01:21:34;;;;;;;1.17;1.15;;;2.70;85.10;;;;;;5052941;28;20246;-68
2023/03/07 01:24:00;;;;;;;0.90;0.90;;;2.70;84.80;;;;;;5052946;28;20602;-68
2023/03/07 01:26:29;;;;;;;1.03;1.03;;;2.80;84.40;;;;;;5053131;28;20231;-68
2023/03/07 01:28:57;;;;;;;5.50;1.25;;;2.80;84.40;;;;;;5052880;28;20432;-68
2023/03/07 01:31:23;;;;;;;1.05;1.05;;;2.80;84.50;;;;;;5052820;28;20198;-68
2023/03/07 01:33:50;;;;;;;1.17;1.15;;;2.70;84.00;;;;;;5052658;28;20177;-68
2023/03/07 01:36:18;;;;;;;1.52;1.42;;;2.70;84.40;;;;;;5053140;28;20171;-68
2023/03/07 01:38:44;;;;;;;2.25;1.13;;;2.60;85.20;;;;;;5053010;28;20526;-68
2023/03/07 01:41:10;;;;;;;1.83;1.73;;;2.60;85.30;;;;;;5052724;28;20196;-68
2023/03/07 01:43:36;;;;;;;4.67;2.20;;;2.70;85.00;;;;;;5052692;28;20169;-68
2023/03/07 01:46:17;;;;;;;0.50;0.50;;;2.70;84.70;;;;;;5052636;28;20541;-68
2023/03/07 01:49:06;;;;;;;0.77;0.77;;;2.70;84.60;;;;;;5052908;28;20172;-68
2023/03/07 01:51:33;;;;;;;0.38;0.38;;;2.50;85.00;;;;;;5052643;28;20153;-68
2023/03/07 01:54:00;;;;;;;0.50;0.50;;;2.50;85.40;;;;;;5052549;28;20174;-68
2023/03/07 01:56:26;;;;;;;2.05;1.30;;;2.50;86.00;;;;;;5052589;28;20175;-68
2023/03/07 01:58:53;;;;;;;0.38;0.38;;;2.60;86.10;;;;;;5052559;28;20643;-68
2023/03/07 02:01:19;;;;;;;1.20;0.60;;;2.50;87.00;;;;;;5052433;28;20216;-68
2023/03/07 02:03:58;;;;;;;2.13;2.00;;;2.60;86.70;;;;;;5052331;28;20241;-68
2023/03/07 02:06:26;;;;;;;0.43;0.43;;;2.50;86.40;;;;;;5052974;28;20455;-68
2023/03/07 02:08:54;;;;;;;0.38;0.38;;;2.50;86.50;;;;;;5034815;28;20256;-68
2023/03/07 02:11:20;;;;;;;0.80;0.68;;;2.60;86.20;;;;;;5052367;28;20186;-68
2023/03/07 02:13:46;;;;;;;0.40;0.40;;;2.60;86.50;;;;;;5052310;28;20174;-68
2023/03/07 02:16:12;;;;;;;1.03;1.03;;;2.50;86.60;;;;;;5052547;28;20652;-68
2023/03/07 02:18:44;;;;;;;1.30;1.25;;;2.40;86.60;;;;;;5052643;28;20193;-68
2023/03/07 02:21:31;;;;;;;1.20;0.70;;;2.40;86.80;;;;;;5054976;28;20200;-68
2023/03/07 02:24:15;;;;;;;1.98;1.30;;;2.50;86.90;;;;;;5055888;28;20206;-68
2023/03/07 02:26:49;;;;;;;0.60;0.60;;;2.50;87.00;;;;;;5056021;28;20172;-68
2023/03/07 02:29:15;;;;;;;1.38;1.00;;;2.40;86.80;;;;;;5055826;28;20184;-68
2023/03/07 02:31:41;;;;;;;0.40;0.40;;;2.40;87.10;;;;;;5055807;28;20226;-68
2023/03/07 02:34:20;;;;;;;0.83;0.83;;;2.30;87.30;;;;;;5055692;28;20179;-68
2023/03/07 02:36:47;;;;;;;5.97;0.80;;;2.20;88.20;;;;;;5056096;28;20408;-68
2023/03/07 02:39:14;;;;;;;4.43;2.28;;;2.20;88.50;;;;;;5037712;28;20178;-68
2023/03/07 02:41:39;;;;;;;2.15;1.98;;;2.20;88.40;;;;;;5055709;28;20233;-68
2023/03/07 02:44:06;;;;;;;0.90;0.90;;;2.10;88.40;;;;;;5055391;28;20198;-68
2023/03/07 02:46:31;;;;;;;0.40;0.40;;;2.20;88.80;;;;;;5055660;28;20916;-68
2023/03/07 02:48:57;;;;;;;0.83;0.83;;;2.20;88.80;;;;;;5037707;28;20185;-68
2023/03/07 02:51:23;;;;;;;0.50;0.50;;;2.20;88.80;;;;;;5055374;28;20204;-68
2023/03/07 02:53:48;;;;;;;0.40;0.40;;;2.20;89.10;;;;;;5037428;28;20259;-68
2023/03/07 02:56:14;;;;;;;1.00;1.00;;;2.20;89.30;;;;;;5055484;28;20177;-68
2023/03/07 02:58:39;;;;;;;6.53;1.80;;;2.20;89.00;;;;;;5055474;28;20666;-68
2023/03/07 03:01:05;;;;;;;0.77;0.77;;;2.10;89.00;;;;;;5055231;28;20730;-68
2023/03/07 03:03:31;;;;;;;35.00;3.60;;;2.20;89.20;;;;;;5054989;28;20569;-68
2023/03/07 03:05:57;;;;;;;0.70;0.70;;;2.10;88.70;;;;;;5055316;28;20495;-69
2023/03/07 03:08:22;;;;;;;0.60;0.60;;;2.10;88.90;;;;;;5055382;28;20245;-68
2023/03/07 03:10:53;;;;;;;0.70;0.70;;;2.10;89.20;;;;;;5055133;28;20190;-68
2023/03/07 03:13:19;;;;;;;0.30;0.30;;;2.00;89.50;;;;;;5055038;28;20328;-68
2023/03/07 03:15:45;;;;;;;0.90;0.90;;;1.90;89.70;;;;;;5055130;28;20189;-68
2023/03/07 03:18:10;;;;;;;0.67;0.67;;;1.80;90.00;;;;;;5055171;28;20230;-68
2023/03/07 03:20:39;;;;;;;0.40;0.40;;;1.80;90.10;;;;;;5054880;28;20182;-68
2023/03/07 03:23:05;;;;;;;0.50;0.50;;;1.80;90.10;;;;;;5054974;28;20205;-68
2023/03/07 03:25:30;;;;;;;0.63;0.63;;;1.70;90.20;;;;;;5054585;28;20240;-68
2023/03/07 03:27:56;;;;;;;0.63;0.63;;;1.60;90.50;;;;;;5054980;28;20887;-68
2023/03/07 03:30:21;;;;;;;0.30;0.30;;;1.60;90.80;;;;;;5036764;28;20630;-68
2023/03/07 03:32:47;;;;;;;0.70;0.70;;;1.60;90.90;;;;;;5054869;28;20526;-68
2023/03/07 03:35:13;;;;;;;2.20;2.00;;;1.70;90.70;;;;;;5054503;28;20181;-68
2023/03/07 03:37:39;;;;;;;0.97;0.70;;;1.80;90.60;;;;;;5054548;28;20204;-68
2023/03/07 03:40:12;;;;;;;0.90;0.90;;;1.70;90.50;;;;;;5054722;28;20196;-68
2023/03/07 03:42:39;;;;;;;0.55;0.55;;;1.70;90.60;;;;;;5054590;28;20188;-68
2023/03/07 03:45:05;;;;;;;0.93;0.93;;;1.70;90.60;;;;;;5054264;28;20643;-68
2023/03/07 03:47:31;;;;;;;0.68;0.68;;;1.80;90.70;;;;;;5054811;28;20169;-68
2023/03/07 03:49:56;;;;;;;0.60;0.60;;;1.90;90.40;;;;;;5054261;28;20189;-68
2023/03/07 03:52:22;;;;;;;0.80;0.80;;;1.90;90.40;;;;;;5054317;28;20181;-68
2023/03/07 03:54:48;;;;;;;0.90;0.90;;;1.80;90.50;;;;;;5054393;28;20697;-68
2023/03/07 03:57:16;;;;;;;0.47;0.47;;;1.80;90.70;;;;;;5054343;28;20177;-68
2023/03/07 03:59:42;;;;;;;0.30;0.30;;;1.90;90.40;;;;;;5036329;28;20677;-68
2023/03/07 04:02:09;;;;;;;0.32;0.32;;;1.80;90.20;;;;;;5054096;28;20200;-68
2023/03/07 04:04:34;;;;;;;1.37;1.27;;;1.80;90.30;;;;;;5054003;28;20198;-68
2023/03/07 04:07:00;;;;;;;1.13;0.93;;;1.80;90.30;;;;;;5054259;28;20178;-68
2023/03/07 04:09:26;;;;;;;0.93;0.93;;;1.90;90.30;;;;;;5054042;28;20191;-68
2023/03/07 04:11:51;;;;;;;0.50;0.50;;;2.00;90.30;;;;;;5053840;28;20165;-68
2023/03/07 04:14:17;;;;;;;0.50;0.50;;;2.00;89.80;;;;;;5053704;28;20212;-68
2023/03/07 04:16:43;;;;;;;1.43;1.00;;;2.10;89.70;;;;;;5053830;28;20170;-68
2023/03/07 04:19:11;;;;;;;0.57;0.57;;;2.20;89.00;;;;;;5053767;28;20533;-68
2023/03/07 04:21:38;;;;;;;0.40;0.40;;;2.30;88.80;;;;;;5053853;28;20173;-68
2023/03/07 04:24:05;;;;;;;1.63;1.63;;;2.30;88.40;;;;;;5053453;28;20198;-68
2023/03/07 04:26:30;;;;;;;0.35;0.35;;;2.30;88.60;;;;;;5053718;28;20507;-68
2023/03/07 04:28:56;;;;;;;0.77;0.77;;;2.40;88.10;;;;;;5053814;28;20169;-68
2023/03/07 04:31:24;;;;;;;0.40;0.40;;;2.40;88.40;;;;;;5053496;28;20211;-68
2023/03/07 04:33:51;;;;;;;0.50;0.40;;;2.40;88.90;;;;;;5053374;28;20250;-68
2023/03/07 04:36:18;;;;;;;0.38;0.38;;;2.40;88.90;;;;;;5053743;28;20197;-68
2023/03/07 04:38:45;;;;;;;0.70;0.70;;;2.50;88.90;;;;;;5053648;28;20172;-68
2023/03/07 04:41:19;;;;;;;1.02;1.02;;;2.50;88.30;;;;;;5053562;28;20244;-68
2023/03/07 04:43:45;;;;;;;2.22;1.45;;;2.50;87.90;;;;;;5052773;28;20177;-68
2023/03/07 04:46:13;;;;;;;0.83;0.83;;;2.60;87.80;;;;;;5053608;28;20180;-68
2023/03/07 04:48:39;;;;;;;2.45;2.35;;;2.60;87.50;;;;;;5053459;28;20406;-68
2023/03/07 04:51:05;;;;;;;8.53;1.77;;;2.70;87.50;;;;;;5053269;28;20567;-68
2023/03/07 04:53:31;;;;;;;0.30;0.30;;;2.70;87.20;;;;;;5053230;28;20173;-68
2023/03/07 04:55:57;;;;;;;0.40;0.40;;;2.80;87.10;;;;;;5053673;28;20174;-68
2023/03/07 04:58:23;;;;;;;0.85;0.85;;;2.80;86.90;;;;;;5053268;28;20486;-68
2023/03/07 05:00:48;;;;;;;1.27;1.17;;;2.70;87.40;;;;;;5053087;28;20283;-68
2023/03/07 05:03:14;;;;;;;1.03;1.03;;;2.80;87.10;;;;;;5053254;28;20193;-68
2023/03/07 05:05:40;;;;;;;2.03;0.87;;;2.70;86.90;;;;;;5053200;28;20202;-68
2023/03/07 05:08:06;;;;;;;0.80;0.80;;;2.60;86.50;;;;;;5053266;28;20657;-68
2023/03/07 05:10:33;;;;;;;0.40;0.40;;;2.50;87.20;;;;;;5053211;28;20419;-68
2023/03/07 05:12:59;;;;;;;0.30;0.30;;;2.60;87.20;;;;;;5053122;28;20267;-68
2023/03/07 05:15:25;;;;;;;0.40;0.40;;;2.60;86.90;;;;;;5052982;28;20251;-68
2023/03/07 05:17:51;;;;;;;2.77;2.67;;;2.70;86.70;;;;;;5035352;28;20720;-68
2023/03/07 05:20:17;;;;;;;1.17;1.17;;;2.70;86.30;;;;;;5052974;28;20432;-68
2023/03/07 05:22:43;;;;;;;0.80;0.80;;;2.70;86.60;;;;;;5052978;28;20489;-68
2023/03/07 05:25:09;;;;;;;0.80;0.80;;;2.70;86.40;;;;;;5052737;28;20718;-68
2023/03/07 05:27:35;;;;;;;1.63;1.50;;;2.70;86.30;;;;;;5053196;28;20260;-68
2023/03/07 05:30:00;;;;;;;1.43;1.43;;;2.60;86.50;;;;;;5053205;28;20423;-68
2023/03/07 05:32:26;;;;;;;4.40;4.10;;;2.60;86.60;;;;;;5053115;28;20943;-68
2023/03/07 05:34:52;;;;;;;3.77;1.37;;;2.60;86.30;;;;;;5052839;28;20253;-68
2023/03/07 05:37:17;;;;;;;0.50;0.50;;;2.60;86.10;;;;;;5053031;28;20172;-68
2023/03/07 05:39:43;;;;;;;11.13;2.57;;;2.60;86.70;;;;;;5052786;28;20189;-68
2023/03/07 05:42:09;;;;;;;0.40;0.40;;;2.60;86.70;;;;;;5053243;28;20710;-68
2023/03/07 05:44:34;;;;;;;0.57;0.57;;;2.60;86.70;;;;;;5052651;28;20540;-68
2023/03/07 05:47:00;;;;;;;1.33;1.23;;;2.60;86.40;;;;;;5052881;28;20175;-68
2023/03/07 05:49:26;;;;;;;0.40;0.40;;;2.70;86.00;;;;;;5052922;28;20526;-68
2023/03/07 05:51:51;;;;;;;0.40;0.40;;;2.70;85.80;;;;;;5052726;28;20705;-68
2023/03/07 05:54:17;;;;;;;0.77;0.77;;;2.70;85.80;;;;;;5053979;28;20177;-68
2023/03/07 05:56:42;;;;;;;2.90;2.80;;;2.70;85.60;;;;;;5056483;28;20275;-68
2023/03/07 05:59:11;;;;;;;0.30;0.30;;;2.70;85.50;;;;;;5056425;28;20667;-68
2023/03/07 06:01:37;;;;;;;1.00;1.00;;;2.70;85.30;;;;;;5056366;28;20189;-68
2023/03/07 06:04:03;;;;;;;0.40;0.40;;;2.60;85.70;;;;;;5056166;28;20215;-68
2023/03/07 06:06:29;;;;;;;0.90;0.90;;;2.70;86.10;;;;;;5056457;28;20170;-68
2023/03/07 06:08:54;;;;;;;0.30;0.30;;;2.70;85.30;;;;;;5038609;28;20177;-68
2023/03/07 06:11:20;;;;;;;7.10;2.50;;;2.70;85.20;;;;;;5056160;28;20192;-68
2023/03/07 06:13:46;;;;;;;0.50;0.50;;;2.60;84.80;;;;;;5056051;28;20172;-68
2023/03/07 06:16:11;;;;;;;2.97;0.90;;;2.60;85.20;;;;;;5038362;28;20180;-68
2023/03/07 06:18:37;;;;;;;1.83;1.73;;;2.60;85.80;;;;;;5056198;28;20165;-68
2023/03/07 06:21:05;;;;;;;0.40;0.40;;;2.70;85.80;;;;;;5056032;28;20185;-68
2023/03/07 06:23:33;;;;;;;0.82;0.82;;;2.70;85.40;;;;;;5055777;28;20184;-68
2023/03/07 06:25:59;;;;;;;2.63;1.25;;;2.70;85.50;;;;;;5055918;28;20210;-68
2023/03/07 06:28:25;;;;;;;1.02;1.02;;;2.70;85.90;;;;;;5055992;28;20169;-68
2023/03/07 06:30:51;;;;;;;0.60;0.60;;;2.80;85.50;;;;;;5055909;28;20192;-68
2023/03/07 06:33:17;;;;;;;3.60;1.43;;;2.90;85.20;;;;;;5055866;28;20170;-68
2023/03/07 06:35:43;;;;;;;1.73;1.63;;;3.00;84.70;;;;;;5055738;28;20420;-68
2023/03/07 06:38:11;;;;;;;0.50;0.50;;;3.10;84.00;;;;;;5055770;28;20508;-68
2023/03/07 06:40:36;;;;;;;0.90;0.88;;;3.10;83.40;;;;;;5055623;28;20197;-68
2023/03/07 06:43:02;;;;;;;0.40;0.40;;;3.00;83.60;;;;;;5055791;28;20671;-68
2023/03/07 06:45:28;;;;;;;2.92;2.67;;;3.10;83.30;;;;;;5055537;28;20212;-68
2023/03/07 06:47:54;;;;;;;1.70;1.60;;;3.10;83.30;;;;;;5055750;28;20174;-68
2023/03/07 06:50:20;;;;;;;0.60;0.60;;;3.00;83.50;;;;;;5055613;28;20429;-68
2023/03/07 06:52:47;;;;;;;2.53;0.60;;;3.10;83.00;;;;;;5055495;28;20950;-68
2023/03/07 06:55:13;;;;;;;0.77;0.77;;;3.10;82.00;;;;;;5037376;28;20654;-68
2023/03/07 06:57:38;;;;;;;0.40;0.40;;;3.10;82.20;;;;;;5055516;28;20189;-68
2023/03/07 07:00:05;;;;;;;0.40;0.40;;;2.90;81.80;;;;;;5055614;28;20206;-68
2023/03/07 07:02:31;;;;;;;2.70;2.60;;;2.60;81.80;;;;;;5055209;28;20190;-68
2023/03/07 07:04:57;;;;;;;0.67;0.67;;;2.50;82.40;;;;;;5054925;28;20788;-68
2023/03/07 07:07:24;;;;;;;1.67;1.57;;;2.60;82.50;;;;;;5054849;28;20445;-68
2023/03/07 07:09:50;;;;;;;0.40;0.40;;;2.70;81.70;;;;;;5055161;28;20921;-68
2023/03/07 07:12:16;;;;;;;0.77;0.77;;;2.60;81.30;;;;;;5055045;28;20175;-68
2023/03/07 07:14:41;;;;;;;6.23;1.83;;;2.60;81.10;;;;;;5055020;28;20421;-68
2023/03/07 07:17:07;;;;;;;1.90;1.80;;;2.70;80.60;;;;;;5055233;28;20451;-68
2023/03/07 07:19:33;;;;;;;0.80;0.80;;;2.90;80.60;;;;;;5055249;28;20194;-68
2023/03/07 07:21:59;;;;;;;3.30;2.50;;;3.10;79.60;;;;;;5054934;28;20182;-68
2023/03/07 07:24:24;;;;;;;0.83;0.80;;;3.20;79.00;;;;;;5054826;28;20198;-68
2023/03/07 07:26:50;;;;;;;0.40;0.40;;;3.30;79.00;;;;;;5055085;28;20171;-68
2023/03/07 07:29:16;;;;;;;1.90;1.80;;;3.40;78.10;;;;;;5054873;28;20170;-68
2023/03/07 07:31:41;;;;;;;0.90;0.90;;;3.50;75.90;;;;;;5054756;28;20248;-68
2023/03/07 07:34:07;;;;;;;0.40;0.40;;;3.60;75.00;;;;;;5054584;28;20170;-68
2023/03/07 07:36:33;;;;;;;1.10;1.00;;;3.60;74.90;;;;;;5054657;28;20179;-68
2023/03/07 07:39:03;;;;;;;1.13;0.67;;;3.60;74.60;;;;;;5054609;28;20174;-68
2023/03/07 07:41:30;;;;;;;0.40;0.40;;;3.70;75.70;;;;;;5054669;28;20384;-68
2023/03/07 07:43:56;;;;;;;1.52;1.42;;;3.80;74.10;;;;;;5054345;28;20177;-68
2023/03/07 07:46:22;;;;;;;0.70;0.70;;;3.90;73.30;;;;;;5054622;28;20166;-68
2023/03/07 07:48:48;;;;;;;1.95;1.85;;;3.90;72.60;;;;;;5054518;28;20401;-68
2023/03/07 07:51:14;;;;;;;1.30;1.30;;;3.90;72.10;;;;;;5054302;28;20190;-68
2023/03/07 07:53:40;;;;;;;1.17;1.08;;;4.00;71.50;;;;;;5054317;28;20421;-68
2023/03/07 07:56:06;;;;;;;1.43;1.33;;;4.00;72.10;;;;;;5054372;28;20170;-68
2023/03/07 07:58:32;;;;;;;2.90;1.85;;;4.10;71.50;;;;;;5054413;28;20567;-68
2023/03/07 08:00:58;;;;;;;0.50;0.50;;;4.10;70.90;;;;;;5053964;28;20217;-68
2023/03/07 08:03:24;;;;;;;0.70;0.70;;;4.20;70.20;;;;;;5053917;28;20201;-68
2023/03/07 08:05:50;;;;;;;3.03;1.73;;;4.20;70.20;;;;;;5054284;28;20665;-68
2023/03/07 08:08:18;;;;;;;0.50;0.50;;;4.30;70.70;;;;;;5054122;28;20192;-68
2023/03/07 08:10:47;;;;;;;1.27;1.27;;;4.40;69.40;;;;;;5053923;28;20203;-68
2023/03/07 08:13:14;;;;;;;3.08;1.92;;;4.40;69.00;;;;;;5053995;28;20166;-68
2023/03/07 08:15:40;;;;;;;8.07;3.42;;;4.50;68.60;;;;;;5054000;28;20182;-69
2023/03/07 08:18:06;;;;;;;0.43;0.43;;;4.50;68.00;;;;;;5053131;28;20178;-68
2023/03/07 08:20:31;;;;;;;1.67;1.03;;;4.40;66.80;;;;;;5053877;28;20557;-68
2023/03/07 08:22:57;;;;;;;3.80;3.50;;;4.20;66.90;;;;;;5053876;28;20678;-68
2023/03/07 08:25:23;;;;;;;2.23;2.03;;;4.30;66.60;;;;;;5053668;28;20202;-68
2023/03/07 08:27:53;;;;;;;1.20;1.20;;;4.30;66.70;;;;;;5053866;28;20251;-68
2023/03/07 08:30:30;;;;;;;0.70;0.70;;;4.40;67.60;;;;;;5053765;28;20186;-68
2023/03/07 08:32:56;;;;;;;10.95;1.92;;;4.50;67.20;;;;;;5053651;28;20203;-68
2023/03/07 08:35:23;;;;;;;1.05;1.05;;;4.40;66.40;;;;;;5053493;28;20185;-68
2023/03/07 08:37:53;;;;;;;1.95;1.85;;;4.50;66.10;;;;;;5053775;28;20196;-68
2023/03/07 08:40:19;;;;;;;1.75;1.08;;;4.60;66.20;;;;;;5053899;28;20198;-68
2023/03/07 08:42:45;;;;;;;1.33;1.27;;;4.50;65.30;;;;;;5053436;28;20189;-68
2023/03/07 08:45:11;;;;;;;2.53;2.30;;;4.70;64.90;;;;;;5053204;28;20482;-68
2023/03/07 08:47:37;;;;;;;0.77;0.77;;;4.60;64.60;;;;;;5053400;28;20248;-68
2023/03/07 08:50:04;;;;;;;1.27;1.27;;;4.70;65.90;;;;;;5053263;28;20293;-68
2023/03/07 08:52:29;;;;;;;3.80;2.10;;;4.80;65.50;;;;;;5053277;28;20205;-68
2023/03/07 08:54:55;;;;;;;0.50;0.50;;;4.80;65.60;;;;;;5053226;28;20627;-68
2023/03/07 08:57:21;;;;;;;2.47;2.27;;;4.90;65.00;;;;;;5053642;28;20264;-68
2023/03/07 08:59:46;;;;;;;1.10;1.10;;;4.90;64.50;;;;;;5053381;28;20193;-68
2023/03/07 09:02:12;;;;;;;0.40;0.40;;;4.80;64.00;;;;;;5053153;28;20190;-68
2023/03/07 09:04:38;;;;;;;0.60;0.60;;;4.80;64.60;;;;;;5053019;28;20229;-68
2023/03/07 09:07:03;;;;;;;1.07;0.80;;;4.70;65.80;;;;;;5053361;28;20166;-68
2023/03/07 09:09:30;;;;;;;0.77;0.77;;;4.90;66.10;;;;;;5053253;28;20182;-68
2023/03/07 09:11:56;;;;;;;1.50;1.50;;;5.10;65.00;;;;;;5053045;28;20166;-68
2023/03/07 09:14:22;;;;;;;1.05;0.93;;;5.10;64.20;;;;;;5053132;28;20189;-68
2023/03/07 09:16:48;;;;;;;0.83;0.83;;;5.20;64.30;;;;;;5053238;28;20167;-68
2023/03/07 09:19:14;;;;;;;0.70;0.70;;;5.20;64.30;;;;;;5052960;28;20170;-68
2023/03/07 09:21:39;;;;;;;1.33;0.87;;;5.10;64.60;;;;;;5053194;28;20183;-68
2023/03/07 09:24:05;;;;;;;2.13;1.87;;;5.20;64.60;;;;;;5052832;28;20216;-68
2023/03/07 09:26:31;;;;;;;1.02;0.90;;;5.20;64.70;;;;;;5053154;28;20227;-68
2023/03/07 09:28:57;;;;;;;4.23;0.90;;;5.10;64.30;;;;;;5054362;28;20643;-68
2023/03/07 09:31:22;;;;;;;1.23;1.17;;;5.10;65.10;;;;;;5056969;28;20194;-69
2023/03/07 09:33:48;;;;;;;4.70;1.73;;;5.20;65.50;;;;;;5056776;28;20180;-68
2023/03/07 09:36:15;;;;;;;0.57;0.57;;;5.20;64.40;;;;;;5057047;28;20166;-68
2023/03/07 09:38:41;;;;;;;6.07;1.73;;;4.90;64.60;;;;;;5057001;28;20530;-68
2023/03/07 09:41:14;;;;;;;1.53;1.43;;;4.80;65.60;;;;;;5056780;28;20274;-68
2023/03/07 09:43:50;;;;;;;0.95;0.75;;;4.90;66.20;;;;;;5056834;28;20400;-68
2023/03/07 09:47:00;;;;;;;0.88;0.88;;;5.00;66.70;;;;;;5057001;28;20201;-68
2023/03/07 09:49:46;;;;;;;2.60;2.50;;;5.20;66.00;;;;;;5010866;28;20693;-68
2023/03/07 09:52:18;;;;;;;0.73;0.73;;;5.10;65.70;;;;;;5056833;28;20257;-68
2023/03/07 09:54:52;;;;;;;1.67;1.58;;;5.30;66.00;;;;;;5056574;28;20253;-69
2023/03/07 09:57:28;;;;;;;1.23;1.13;;;5.30;65.50;;;;;;5056779;28;20181;-68
2023/03/07 10:00:05;;;;;;;1.88;1.67;;;5.10;66.50;;;;;;5056522;28;20251;-68
2023/03/07 10:02:44;;;;;;;0.88;0.88;;;5.20;66.60;;;;;;5056907;28;20200;-68
2023/03/07 10:05:34;;;;;;;1.00;1.00;;;5.30;67.50;;;;;;5056337;28;20251;-68
2023/03/07 10:08:00;;;;;;;3.38;3.28;;;5.30;66.20;;;;;;5056531;28;20170;-68
2023/03/07 10:10:38;;;;;;;0.70;0.70;;;5.40;66.40;;;;;;5056237;28;20632;-68
2023/03/07 10:13:27;;;;;;;1.90;1.80;;;5.60;66.20;;;;;;5056586;28;20166;-68
2023/03/07 10:15:56;;;;;;;1.85;1.05;;;5.70;66.40;;;;;;5056444;28;20203;-68
2023/03/07 10:18:43;;;;;;;0.73;0.60;;;5.70;65.60;;;;;;5056581;28;20173;-68
2023/03/07 10:21:46;;;;;;;1.15;1.15;;;5.50;65.60;;;;;;5056086;28;20566;-68
2023/03/07 10:24:34;;;;;;;1.85;1.25;;;5.40;66.80;;;;;;5055989;28;20272;-68
2023/03/07 10:27:09;;;;;;;14.05;3.40;;;5.40;67.60;;;;;;5056146;28;20166;-68
2023/03/07 10:29:45;;;;;;;0.40;0.40;;;5.60;67.70;;;;;;5056075;28;20186;-68
2023/03/07 10:33:01;;;;;;;1.33;1.17;;;5.80;67.00;;;;;;5055875;28;20173;-68
2023/03/07 10:35:41;;;;;;;1.13;1.13;;;5.50;67.70;;;;;;5042523;28;20194;-68
2023/03/07 10:38:32;;;;;;;1.70;1.60;;;5.80;67.70;;;;;;5055886;28;20527;-68
2023/03/07 10:41:19;;;;;;;11.15;1.73;;;6.10;67.40;;;;;;5054686;28;20198;-68
2023/03/07 10:43:46;;;;;;;5.85;4.88;;;6.40;66.90;;;;;;5055637;28;20174;-69
2023/03/07 10:46:20;;;;;;;4.30;3.00;;;6.40;65.50;;;;;;5055776;28;20281;-68
2023/03/07 10:48:50;;;;;;;0.95;0.95;;;6.40;64.90;;;;;;5055859;28;20174;-68
2023/03/07 10:51:40;;;;;;;0.88;0.88;;;6.20;65.30;;;;;;5055831;28;20534;-68
2023/03/07 10:54:14;;;;;;;1.67;1.67;;;6.40;66.20;;;;;;5055396;28;20631;-68
2023/03/07 10:56:39;;;;;;;5.60;2.85;;;6.50;66.40;;;;;;5055635;28;20172;-68
2023/03/07 10:59:09;;;;;;;3.40;1.23;;;6.40;64.70;;;;;;5055411;28;20171;-68
2023/03/07 11:01:37;;;;;;;2.47;1.95;;;6.00;64.90;;;;;;5055313;28;20214;-68
2023/03/07 11:04:05;;;;;;;0.65;0.65;;;5.90;65.70;;;;;;5055123;28;20171;-68
2023/03/07 11:06:40;;;;;;;1.65;1.65;;;5.80;66.60;;;;;;5055420;28;20223;-69
2023/03/07 11:09:28;;;;;;;2.25;1.98;;;5.70;66.50;;;;;;5037214;28;20276;-68
2023/03/07 11:12:09;;;;;;;0.70;0.50;;;5.70;65.50;;;;;;5055315;28;20219;-68
2023/03/07 11:14:49;;;;;;;5.35;1.70;;;5.80;65.60;;;;;;5054885;28;20177;-68
2023/03/07 11:17:21;;;;;;;1.30;1.20;;;6.00;65.60;;;;;;5055359;28;20179;-68
2023/03/07 11:19:50;;;;;;;0.60;0.60;;;6.00;64.40;;;;;;5054987;28;20697;-68
2023/03/07 11:22:25;;;;;;;3.72;2.08;;;6.20;65.80;;;;;;5054966;28;20630;-68
2023/03/07 11:25:20;;;;;;;1.20;1.08;;;6.30;65.20;;;;;;5054748;28;20276;-68
2023/03/07 11:27:48;;;;;;;2.85;2.65;;;6.40;64.00;;;;;;5055047;28;20167;-68
2023/03/07 11:30:49;;;;;;;1.45;1.45;;;6.20;64.30;;;;;;5054700;28;20248;-68
2023/03/07 11:33:30;;;;;;;1.33;1.23;;;6.00;63.90;;;;;;5054905;28;20529;-68
2023/03/07 11:36:24;;;;;;;0.60;0.60;;;6.20;65.30;;;;;;5055129;28;20171;-68
2023/03/07 11:39:01;;;;;;;1.42;1.35;;;6.50;64.00;;;;;;5051781;28;20195;-69
2023/03/07 11:42:02;;;;;;;1.48;1.35;;;6.90;64.10;;;;;;5054427;28;20725;-68
2023/03/07 11:44:38;;;;;;;1.08;1.08;;;7.00;62.50;;;;;;5054334;28;20200;-69
2023/03/07 11:47:38;;;;;;;1.65;1.55;;;7.10;62.00;;;;;;5054727;28;20173;-68
2023/03/07 11:50:22;;;;;;;1.13;1.00;;;7.30;62.00;;;;;;5054464;28;20187;-68
2023/03/07 11:53:13;;;;;;;1.75;1.52;;;7.20;60.40;;;;;;5054147;28;20177;-68
2023/03/07 11:55:59;;;;;;;2.47;1.17;;;7.40;61.60;;;;;;5054516;28;20181;-68
2023/03/07 11:58:58;;;;;;;5.95;2.42;;;7.50;60.90;;;;;;5054523;28;20167;-68
2023/03/07 12:01:43;;;;;;;2.13;1.27;;;7.10;60.40;;;;;;5008854;28;20278;-68
2023/03/07 12:04:33;;;;;;;2.55;1.92;;;6.80;61.50;;;;;;5053912;28;20544;-68
2023/03/07 12:07:14;;;;;;;3.00;1.52;;;7.00;61.40;;;;;;5054238;28;20204;-69
2023/03/07 12:10:03;;;;;;;2.72;2.35;;;6.80;60.80;;;;;;5054193;28;20676;-68
2023/03/07 12:12:55;;;;;;;0.40;0.40;;;6.50;60.80;;;;;;5054040;28;20167;-68
2023/03/07 12:15:28;;;;;;;1.30;1.05;;;6.50;61.50;;;;;;5053726;28;20175;-68
2023/03/07 12:18:05;;;;;;;2.17;1.98;;;6.50;61.50;;;;;;5053998;28;20199;-69
2023/03/07 12:20:38;;;;;;;1.73;1.40;;;6.60;61.70;;;;;;5054133;28;20214;-68
2023/03/07 12:23:27;;;;;;;4.53;1.95;;;6.90;61.00;;;;;;5054212;28;20527;-68
2023/03/07 12:26:00;;;;;;;2.40;2.33;;;6.90;60.10;;;;;;5035841;28;20660;-69
2023/03/07 12:28:45;;;;;;;1.83;1.70;;;7.00;60.70;;;;;;5053984;28;20574;-68
2023/03/07 12:31:18;;;;;;;1.38;1.38;;;7.10;60.50;;;;;;5053829;28;20194;-68
2023/03/07 12:33:59;;;;;;;1.00;1.00;;;7.30;61.80;;;;;;5053628;28;20222;-68
2023/03/07 12:36:27;;;;;;;2.10;1.95;;;7.50;60.40;;;;;;5053990;28;20662;-68
2023/03/07 12:39:05;;;;;;;1.13;1.13;;;7.40;58.60;;;;;;5053527;28;20673;-68
2023/03/07 12:41:50;;;;;;;1.67;1.58;;;7.20;58.00;;;;;;5035347;28;20199;-69
2023/03/07 12:44:24;;;;;;;3.30;3.10;;;7.00;59.60;;;;;;5053079;28;20169;-69
2023/03/07 12:47:00;;;;;;;2.20;2.00;;;7.10;59.50;;;;;;5053190;28;20198;-71
2023/03/07 12:49:28;;;;;;;2.67;2.53;;;7.10;59.30;;;;;;5035733;28;20514;-71
2023/03/07 12:52:03;;;;;;;3.38;1.55;;;7.30;59.10;;;;;;5053739;28;20698;-71
2023/03/07 12:54:36;;;;;;;1.42;1.42;;;7.30;59.10;;;;;;5053252;28;20219;-71
2023/03/07 12:57:13;;;;;;;1.77;1.73;;;7.50;58.70;;;;;;5035377;28;20165;-71
2023/03/07 12:59:42;;;;;;;1.15;1.15;;;7.60;58.70;;;;;;5053100;28;20232;-71
2023/03/07 13:02:14;;;;;;;1.50;1.50;;;7.70;58.20;;;;;;5035595;28;20200;-71
2023/03/07 13:04:43;;;;;;;4.43;3.53;;;7.60;57.70;;;;;;5034364;28;20249;-71
2023/03/07 13:07:23;;;;;;;1.92;1.83;;;7.50;58.30;;;;;;5053397;28;20169;-71
2023/03/07 13:09:51;;;;;;;1.15;1.05;;;7.20;58.20;;;;;;5053336;28;20196;-71
2023/03/07 13:12:22;;;;;;;1.05;1.02;;;7.20;58.40;;;;;;5053123;28;20645;-71